Time;durP1;ratioP1;P1;durP2;ratioP2;P2;SDS_P1;SDS_P2;PMS_P1;PMS_P2;Temp;Humidity;BMP_temperature;BMP_pressure;BME280_temperature;BME280_humidity;BME280_pressure;Samples;Min_cycle;Max_cycle;Signal;HPM_P1;HPM_P2
2022/09/05 00:02:28;;;;;;;7.80;7.10;;;20.20;99.90;;;;;;5033751;28;20029;-71
2022/09/05 00:05:31;;;;;;;6.60;6.20;;;20.20;99.90;;;;;;5003679;28;20056;-70
2022/09/05 00:08:25;;;;;;;7.60;7.00;;;20.20;99.90;;;;;;5034800;28;20025;-72
2022/09/05 00:11:29;;;;;;;7.35;6.85;;;20.20;99.90;;;;;;5034214;28;20104;-72
2022/09/05 00:14:10;;;;;;;8.10;7.50;;;20.20;99.90;;;;;;4935218;29;20035;-69
2022/09/05 00:17:16;;;;;;;8.05;7.45;;;20.20;99.90;;;;;;4934876;29;20118;-71
2022/09/05 00:19:50;;;;;;;7.78;7.18;;;20.20;99.90;;;;;;5018312;28;20069;-73
2022/09/05 00:22:42;;;;;;;6.90;6.40;;;20.20;99.90;;;;;;5034043;28;20056;-72
2022/09/05 00:25:22;;;;;;;7.15;6.65;;;20.10;99.90;;;;;;5016347;28;20108;-70
2022/09/05 00:28:13;;;;;;;7.63;7.13;;;20.10;99.90;;;;;;5034204;28;20079;-71
2022/09/05 00:31:06;;;;;;;8.68;8.07;;;20.10;99.90;;;;;;5016199;28;20037;-71
2022/09/05 00:34:04;;;;;;;8.57;7.97;;;20.00;99.90;;;;;;5033145;28;20046;-70
2022/09/05 00:36:48;;;;;;;10.55;9.75;;;20.00;99.90;;;;;;5016129;28;20052;-71
2022/09/05 00:39:36;;;;;;;9.88;9.07;;;19.90;99.90;;;;;;5033880;28;20080;-70
2022/09/05 00:42:12;;;;;;;10.82;9.77;;;19.80;99.90;;;;;;5016100;28;20030;-70
2022/09/05 00:44:58;;;;;;;11.00;10.10;;;19.90;99.90;;;;;;5033900;28;20029;-71
2022/09/05 00:47:56;;;;;;;9.80;9.10;;;19.80;99.90;;;;;;5015828;28;20467;-71
2022/09/05 00:50:49;;;;;;;10.20;9.40;;;19.80;99.90;;;;;;5020644;28;20056;-72
2022/09/05 00:53:26;;;;;;;10.18;9.38;;;19.80;99.90;;;;;;5032401;28;20472;-69
2022/09/05 00:56:17;;;;;;;11.77;10.77;;;19.80;99.90;;;;;;5015586;28;20049;-73
2022/09/05 00:59:08;;;;;;;11.50;10.40;;;19.80;99.90;;;;;;5033569;28;20047;-70
2022/09/05 01:02:15;;;;;;;10.68;9.77;;;19.80;99.90;;;;;;5033290;28;20029;-69
2022/09/05 01:04:53;;;;;;;10.40;9.50;;;19.70;99.90;;;;;;5033520;28;20414;-69
2022/09/05 01:07:40;;;;;;;13.68;10.43;;;19.70;99.90;;;;;;5033357;28;20025;-69
2022/09/05 01:10:41;;;;;;;10.48;9.50;;;19.70;99.90;;;;;;5033330;28;20464;-72
2022/09/05 01:13:33;;;;;;;9.68;8.77;;;19.70;99.90;;;;;;5033590;28;20055;-72
2022/09/05 01:16:14;;;;;;;9.68;8.82;;;19.70;99.90;;;;;;5039921;28;20403;-69
2022/09/05 01:18:42;;;;;;;9.95;9.05;;;19.70;99.90;;;;;;5040013;28;20022;-70
2022/09/05 01:21:10;;;;;;;9.35;8.55;;;19.70;99.90;;;;;;5022232;28;20104;-73
2022/09/05 01:23:58;;;;;;;11.23;9.32;;;19.70;99.90;;;;;;5039873;28;20480;-71
2022/09/05 01:26:47;;;;;;;12.18;10.88;;;19.70;99.90;;;;;;5039815;28;20035;-70
2022/09/05 01:29:54;;;;;;;10.45;9.55;;;19.70;99.90;;;;;;5040177;28;20483;-69
2022/09/05 01:32:29;;;;;;;12.60;10.43;;;19.60;99.90;;;;;;5039761;28;20458;-71
2022/09/05 01:35:03;;;;;;;11.65;10.50;;;19.60;99.90;;;;;;5022061;28;20021;-71
2022/09/05 01:37:37;;;;;;;;;;;19.60;99.90;;;;;;5040153;28;20025;-72
2022/09/05 01:40:23;;;;;;;9.73;8.93;;;19.60;99.90;;;;;;5039863;28;19996;-69
2022/09/05 01:43:14;;;;;;;11.95;10.75;;;19.60;99.90;;;;;;5040011;28;20026;-70
2022/09/05 01:45:40;;;;;;;11.10;10.07;;;19.60;99.90;;;;;;5039546;28;20033;-69
2022/09/05 01:48:12;;;;;;;11.20;10.15;;;19.50;99.90;;;;;;5039646;28;20078;-70
2022/09/05 01:51:19;;;;;;;11.27;10.10;;;19.50;99.90;;;;;;5039553;28;20535;-72
2022/09/05 01:53:57;;;;;;;11.68;10.50;;;19.60;99.90;;;;;;5039495;28;20105;-73
2022/09/05 01:56:52;;;;;;;12.80;10.82;;;19.50;99.90;;;;;;5021715;28;20061;-71
2022/09/05 01:59:45;;;;;;;12.98;11.25;;;19.50;99.90;;;;;;5039660;28;20021;-73
2022/09/05 02:02:41;;;;;;;10.88;9.98;;;19.50;99.90;;;;;;5039460;28;20103;-71
2022/09/05 02:05:29;;;;;;;10.70;9.60;;;19.50;99.90;;;;;;5039514;28;20029;-71
2022/09/05 02:08:07;;;;;;;11.68;10.40;;;19.40;99.90;;;;;;5021715;28;20053;-72
2022/09/05 02:11:10;;;;;;;9.73;8.93;;;19.40;99.90;;;;;;5039422;28;20032;-71
2022/09/05 02:13:36;;;;;;;9.97;9.07;;;19.30;99.90;;;;;;5039355;28;20080;-71
2022/09/05 02:16:24;;;;;;;10.40;9.43;;;19.40;99.90;;;;;;5039426;28;20018;-70
2022/09/05 02:18:56;;;;;;;11.00;9.07;;;19.40;99.90;;;;;;5039287;28;20025;-70
2022/09/05 02:21:53;;;;;;;9.23;8.30;;;19.40;99.90;;;;;;5039238;28;20031;-72
2022/09/05 02:24:31;;;;;;;8.90;8.02;;;19.40;99.90;;;;;;4999220;28;20033;-72
2022/09/05 02:27:33;;;;;;;9.05;8.13;;;19.50;99.90;;;;;;5035497;28;20061;-71
2022/09/05 02:30:14;;;;;;;9.10;8.23;;;19.40;99.90;;;;;;5036302;28;20025;-72
2022/09/05 02:33:14;;;;;;;8.30;7.50;;;19.40;99.90;;;;;;5036089;28;20026;-71
2022/09/05 02:36:01;;;;;;;9.52;7.72;;;19.40;99.90;;;;;;5003813;28;20033;-70
2022/09/05 02:38:57;;;;;;;10.15;9.10;;;19.40;99.90;;;;;;5035993;28;20026;-70
2022/09/05 02:41:51;;;;;;;14.32;8.88;;;19.30;99.90;;;;;;5018147;28;20075;-71
2022/09/05 02:44:40;;;;;;;10.25;8.30;;;19.40;99.90;;;;;;5035932;28;20022;-70
2022/09/05 02:47:17;;;;;;;9.73;8.02;;;19.40;99.90;;;;;;5035750;28;20083;-72
2022/09/05 02:50:02;;;;;;;22.38;10.07;;;19.40;99.90;;;;;;5035784;28;20037;-71
2022/09/05 02:52:31;;;;;;;9.45;8.52;;;19.30;99.90;;;;;;5036234;28;20041;-70
2022/09/05 02:54:58;;;;;;;27.98;12.55;;;19.30;99.90;;;;;;5035615;28;20057;-71
2022/09/05 02:57:38;;;;;;;14.73;9.32;;;19.30;99.90;;;;;;5035613;28;20021;-69
2022/09/05 03:00:20;;;;;;;17.73;9.38;;;19.30;99.90;;;;;;5035681;28;20044;-70
2022/09/05 03:03:02;;;;;;;13.05;9.13;;;19.30;99.90;;;;;;5035566;28;20021;-70
2022/09/05 03:05:50;;;;;;;21.02;11.27;;;19.30;99.90;;;;;;5035419;28;20026;-69
2022/09/05 03:08:57;;;;;;;10.65;9.07;;;19.30;99.90;;;;;;5035159;28;20048;-72
2022/09/05 03:11:32;;;;;;;9.90;8.13;;;19.30;99.90;;;;;;4980777;28;20045;-70
2022/09/05 03:14:36;;;;;;;8.25;7.43;;;19.30;99.90;;;;;;5035328;28;20179;-72
2022/09/05 03:17:02;;;;;;;8.90;7.63;;;19.30;99.90;;;;;;5035192;28;20021;-71
2022/09/05 03:19:51;;;;;;;12.05;8.13;;;19.30;99.90;;;;;;5035124;28;20033;-69
2022/09/05 03:22:46;;;;;;;11.75;9.23;;;19.40;99.90;;;;;;5035307;28;20049;-71
2022/09/05 03:25:23;;;;;;;11.98;8.93;;;19.30;99.90;;;;;;5035264;28;20376;-69
2022/09/05 03:28:26;;;;;;;11.15;8.90;;;19.40;99.90;;;;;;5035331;28;20021;-73
2022/09/05 03:30:55;;;;;;;10.93;8.52;;;19.40;99.90;;;;;;5035006;28;20033;-70
2022/09/05 03:33:26;;;;;;;13.18;9.05;;;19.40;99.90;;;;;;5034863;28;20046;-71
2022/09/05 03:36:29;;;;;;;16.13;9.82;;;19.40;99.90;;;;;;5034843;28;20105;-71
2022/09/05 03:39:20;;;;;;;19.60;10.83;;;19.30;99.90;;;;;;5034246;28;20029;-72
2022/09/05 03:42:47;;;;;;;21.65;11.35;;;19.30;99.90;;;;;;5034828;28;20338;-72
2022/09/05 03:45:12;;;;;;;14.27;8.93;;;19.30;99.90;;;;;;4954680;29;20031;-72
2022/09/05 03:48:06;;;;;;;10.98;8.88;;;19.30;99.90;;;;;;5032453;28;20030;-70
2022/09/05 03:50:44;;;;;;;10.02;8.30;;;19.30;99.90;;;;;;5034614;28;20021;-72
2022/09/05 03:53:35;;;;;;;9.85;8.38;;;19.30;99.90;;;;;;5017268;28;20127;-70
2022/09/05 03:56:37;;;;;;;10.20;8.15;;;19.30;99.90;;;;;;5034280;28;20061;-69
2022/09/05 03:59:02;;;;;;;10.30;8.52;;;19.30;99.90;;;;;;5016788;28;20453;-72
2022/09/05 04:01:42;;;;;;;13.30;10.10;;;19.40;99.90;;;;;;5034344;28;20109;-69
2022/09/05 04:04:19;;;;;;;13.05;8.52;;;19.30;99.90;;;;;;5016727;28;20112;-72
2022/09/05 04:06:57;;;;;;;11.73;8.30;;;19.30;99.90;;;;;;5034330;28;20026;-71
2022/09/05 04:09:44;;;;;;;10.45;8.50;;;19.40;99.90;;;;;;5034290;28;20384;-72
2022/09/05 04:12:13;;;;;;;11.73;8.82;;;19.40;99.90;;;;;;5034403;28;20037;-71
2022/09/05 04:14:56;;;;;;;11.07;8.60;;;19.40;99.90;;;;;;5034196;28;20049;-70
2022/09/05 04:17:40;;;;;;;12.35;9.63;;;19.40;99.90;;;;;;5034085;28;20021;-72
2022/09/05 04:20:34;;;;;;;15.63;11.13;;;19.40;99.90;;;;;;5034376;28;20072;-70
2022/09/05 04:23:28;;;;;;;9.07;8.18;;;19.40;99.90;;;;;;5034147;28;20032;-69
2022/09/05 04:26:06;;;;;;;;;;;19.30;99.90;;;;;;5034415;28;20021;-71
2022/09/05 04:28:46;;;;;;;22.05;11.88;;;19.30;99.90;;;;;;5033996;28;19911;-72
2022/09/05 04:31:25;;;;;;;14.00;10.73;;;19.30;99.90;;;;;;5016185;28;20025;-69
2022/09/05 04:34:48;;;;;;;20.17;10.80;;;19.20;99.90;;;;;;5034169;28;20086;-71
2022/09/05 04:37:39;;;;;;;12.85;10.10;;;19.20;99.90;;;;;;4987313;28;20547;-72
2022/09/05 04:40:29;;;;;;;15.57;10.73;;;19.20;99.90;;;;;;5034062;28;20479;-72
2022/09/05 04:42:59;;;;;;;22.75;13.20;;;19.20;99.90;;;;;;5033748;28;20479;-70
2022/09/05 04:45:28;;;;;;;17.70;10.77;;;19.20;99.90;;;;;;5033669;28;20017;-72
2022/09/05 04:47:56;;;;;;;16.10;10.85;;;19.20;99.90;;;;;;5015937;28;20092;-72
2022/09/05 04:50:23;;;;;;;17.92;10.15;;;19.20;99.90;;;;;;5033472;28;20486;-72
2022/09/05 04:53:24;;;;;;;23.50;13.43;;;19.30;99.90;;;;;;5033350;28;20032;-70
2022/09/05 04:55:54;;;;;;;14.00;10.35;;;19.30;99.90;;;;;;5033354;28;20046;-69
2022/09/05 04:58:49;;;;;;;19.92;11.38;;;19.20;99.90;;;;;;5015610;28;20065;-70
2022/09/05 05:01:43;;;;;;;13.88;10.40;;;19.30;99.90;;;;;;5015678;28;20021;-70
2022/09/05 05:04:15;;;;;;;17.38;11.13;;;19.30;99.90;;;;;;5015591;28;20029;-69
2022/09/05 05:06:56;;;;;;;16.23;11.30;;;19.30;99.90;;;;;;5033305;28;20025;-69
2022/09/05 05:09:29;;;;;;;25.33;11.90;;;19.40;99.90;;;;;;5033233;28;20053;-68
2022/09/05 05:12:04;;;;;;;20.02;11.60;;;19.40;99.90;;;;;;5033475;28;20082;-69
2022/09/05 05:14:50;;;;;;;15.80;11.98;;;19.50;99.90;;;;;;5032761;28;20086;-68
2022/09/05 05:17:16;;;;;;;12.80;10.57;;;19.40;99.90;;;;;;5033372;28;20016;-70
2022/09/05 05:19:49;;;;;;;15.60;11.20;;;19.50;99.90;;;;;;5033024;28;20105;-70
2022/09/05 05:22:16;;;;;;;12.55;9.45;;;19.50;99.90;;;;;;5033220;28;20423;-68
2022/09/05 05:24:54;;;;;;;13.38;9.25;;;19.50;99.90;;;;;;5032163;28;20518;-70
2022/09/05 05:27:54;;;;;;;13.57;9.45;;;19.50;99.90;;;;;;5031600;28;20041;-68
2022/09/05 05:30:30;;;;;;;13.32;9.98;;;19.60;99.90;;;;;;5031338;28;20029;-70
2022/09/05 05:32:59;;;;;;;14.20;10.02;;;19.60;99.90;;;;;;5031039;28;20079;-69
2022/09/05 05:35:29;;;;;;;12.00;9.57;;;19.60;99.90;;;;;;5030942;28;20022;-69
2022/09/05 05:38:10;;;;;;;13.30;9.35;;;19.70;99.90;;;;;;5031229;28;20022;-71
2022/09/05 05:40:42;;;;;;;11.30;9.73;;;19.70;99.90;;;;;;5032429;28;20018;-69
2022/09/05 05:43:18;;;;;;;14.33;11.10;;;19.70;99.90;;;;;;5027257;28;20464;-70
2022/09/05 05:45:44;;;;;;;10.48;9.20;;;19.80;99.90;;;;;;5019000;28;20033;-69
2022/09/05 05:48:29;;;;;;;11.77;8.75;;;19.80;99.90;;;;;;5010504;28;20057;-68
2022/09/05 05:51:12;;;;;;;20.08;11.52;;;19.80;99.90;;;;;;5021596;28;20061;-71
2022/09/05 05:53:47;;;;;;;12.40;9.77;;;19.80;99.90;;;;;;5029020;28;20476;-70
2022/09/05 05:56:32;;;;;;;14.07;10.75;;;19.80;99.90;;;;;;5031567;28;20041;-70
2022/09/05 05:59:15;;;;;;;15.65;11.23;;;19.80;99.90;;;;;;5030785;28;20464;-72
2022/09/05 06:02:09;;;;;;;15.85;12.57;;;19.80;99.90;;;;;;5035039;28;20033;-70
2022/09/05 06:04:53;;;;;;;15.55;10.77;;;19.80;99.90;;;;;;5018693;28;20384;-72
2022/09/05 06:07:43;;;;;;;13.65;11.40;;;19.70;99.90;;;;;;5017241;28;20021;-69
2022/09/05 06:10:44;;;;;;;19.23;13.25;;;19.70;99.90;;;;;;5014783;28;20041;-71
2022/09/05 06:14:00;;;;;;;16.52;11.63;;;19.80;99.90;;;;;;4956865;28;20469;-71
2022/09/05 06:16:35;;;;;;;20.23;13.05;;;19.90;99.90;;;;;;5002234;28;20053;-70
2022/09/05 06:19:12;;;;;;;14.60;11.00;;;19.90;99.90;;;;;;5027540;28;20048;-71
2022/09/05 06:21:53;;;;;;;14.75;10.80;;;19.90;99.90;;;;;;5016416;28;20037;-73
2022/09/05 06:24:41;;;;;;;17.40;11.60;;;19.90;99.90;;;;;;5023008;28;20053;-70
2022/09/05 06:27:26;;;;;;;21.98;15.13;;;20.00;99.90;;;;;;5030960;28;20052;-70
2022/09/05 06:29:58;;;;;;;17.88;11.68;;;20.00;99.90;;;;;;5010569;28;20136;-71
2022/09/05 06:33:01;;;;;;;17.15;11.32;;;20.00;99.90;;;;;;5020311;28;20029;-69
2022/09/05 06:35:54;;;;;;;23.55;15.20;;;20.10;99.90;;;;;;5031956;28;20035;-71
2022/09/05 06:38:28;;;;;;;18.23;13.10;;;20.10;99.90;;;;;;5010822;28;20025;-71
2022/09/05 06:41:20;;;;;;;15.43;11.65;;;20.10;99.90;;;;;;5030944;28;20029;-69
2022/09/05 06:43:51;;;;;;;19.27;13.88;;;20.10;99.90;;;;;;5013042;28;20025;-68
2022/09/05 06:46:37;;;;;;;19.40;13.48;;;20.10;99.90;;;;;;5011864;28;20021;-70
2022/09/05 06:49:24;;;;;;;26.50;17.48;;;20.10;99.90;;;;;;5031432;28;20125;-70
2022/09/05 06:52:05;;;;;;;22.35;15.38;;;20.10;99.90;;;;;;5029645;28;20043;-69
2022/09/05 06:54:52;;;;;;;25.73;16.85;;;20.00;99.90;;;;;;5032010;28;20106;-69
2022/09/05 06:58:03;;;;;;;21.25;14.45;;;20.10;99.90;;;;;;5012167;28;20045;-71
2022/09/05 07:00:59;;;;;;;17.10;12.68;;;20.20;99.90;;;;;;5007337;28;20030;-69
2022/09/05 07:03:42;;;;;;;16.10;12.13;;;20.30;99.90;;;;;;4992186;28;20400;-69
2022/09/05 07:06:33;;;;;;;18.60;12.73;;;20.40;99.90;;;;;;5011503;28;20068;-72
2022/09/05 07:09:42;;;;;;;32.70;18.50;;;20.40;99.90;;;;;;5005870;28;20022;-69
2022/09/05 07:12:36;;;;;;;27.38;18.35;;;20.50;99.90;;;;;;4978581;28;20562;-72
2022/09/05 07:15:14;;;;;;;16.63;13.45;;;20.50;99.90;;;;;;4989674;28;20029;-70
2022/09/05 07:17:43;;;;;;;15.52;12.35;;;20.60;99.90;;;;;;5005760;28;20112;-70
2022/09/05 07:20:21;;;;;;;23.35;15.65;;;20.60;99.90;;;;;;5004377;28;20136;-71
2022/09/05 07:23:03;;;;;;;21.52;14.77;;;20.70;99.90;;;;;;4991769;28;20495;-73
2022/09/05 07:25:34;;;;;;;16.00;13.30;;;20.70;99.90;;;;;;5003649;28;20369;-71
2022/09/05 07:28:09;;;;;;;22.50;17.02;;;20.80;99.90;;;;;;4988974;28;20036;-69
2022/09/05 07:30:59;;;;;;;25.25;17.08;;;20.90;99.90;;;;;;4992601;28;20029;-69
2022/09/05 07:33:30;;;;;;;25.25;18.48;;;20.90;99.90;;;;;;5006185;28;20362;-69
2022/09/05 07:36:22;;;;;;;27.48;18.27;;;21.00;99.90;;;;;;5011106;28;20022;-71
2022/09/05 07:38:53;;;;;;;22.80;16.27;;;20.90;99.90;;;;;;5005822;28;20388;-70
2022/09/05 07:41:23;;;;;;;21.73;17.38;;;21.00;99.90;;;;;;4994519;28;20026;-70
2022/09/05 07:43:55;;;;;;;22.73;17.35;;;21.10;99.90;;;;;;4992828;28;20038;-69
2022/09/05 07:46:39;;;;;;;21.75;17.38;;;21.20;99.90;;;;;;5007866;28;20393;-69
2022/09/05 07:49:15;;;;;;;19.13;15.82;;;21.10;99.90;;;;;;5006673;28;20018;-65
2022/09/05 07:51:52;;;;;;;21.55;16.40;;;21.20;99.90;;;;;;4991362;28;20045;-68
2022/09/05 07:54:32;;;;;;;18.35;15.88;;;21.40;99.90;;;;;;4992397;28;20019;-67
2022/09/05 07:57:08;;;;;;;27.77;20.48;;;21.50;99.90;;;;;;5010749;28;20037;-70
2022/09/05 07:59:39;;;;;;;24.67;18.35;;;21.60;99.90;;;;;;5012078;28;20072;-67
2022/09/05 08:02:08;;;;;;;23.33;18.25;;;21.60;99.90;;;;;;5010837;28;20056;-68
2022/09/05 08:04:38;;;;;;;22.80;17.00;;;21.60;99.90;;;;;;5011102;28;20032;-66
2022/09/05 08:07:15;;;;;;;20.48;17.30;;;21.70;99.90;;;;;;5010763;28;20053;-67
2022/09/05 08:09:49;;;;;;;17.60;15.40;;;21.90;99.90;;;;;;5011828;28;20491;-69
2022/09/05 08:12:40;;;;;;;17.67;15.27;;;22.10;99.90;;;;;;4992609;28;20030;-67
2022/09/05 08:15:23;;;;;;;20.88;16.58;;;22.30;99.90;;;;;;4999367;28;20034;-68
2022/09/05 08:18:17;;;;;;;16.90;14.53;;;22.60;99.90;;;;;;4988541;28;20034;-67
2022/09/05 08:20:50;;;;;;;20.52;16.40;;;22.70;99.90;;;;;;4992767;28;20295;-69
2022/09/05 08:23:35;;;;;;;;;;;23.00;99.90;;;;;;5003843;28;20033;-69
2022/09/05 08:26:11;;;;;;;17.60;15.60;;;23.20;99.90;;;;;;4990508;28;19909;-68
2022/09/05 08:28:55;;;;;;;17.27;15.52;;;23.40;99.90;;;;;;5002338;28;20062;-68
2022/09/05 08:31:25;;;;;;;;;;;24.70;99.90;;;;;;5002153;28;20060;-68
2022/09/05 08:33:55;;;;;;;14.95;13.43;;;26.50;99.90;;;;;;5000230;28;20391;-69
2022/09/05 08:36:35;;;;;;;14.30;12.55;;;27.30;99.90;;;;;;5001529;28;20028;-65
2022/09/05 08:39:03;;;;;;;13.48;12.07;;;27.30;99.90;;;;;;5009021;28;20025;-67
2022/09/05 08:41:35;;;;;;;13.48;11.82;;;27.00;99.90;;;;;;5005589;28;20053;-66
2022/09/05 08:44:06;;;;;;;13.48;12.07;;;26.60;99.90;;;;;;5004839;28;20061;-65
2022/09/05 08:46:45;;;;;;;16.33;14.63;;;26.20;99.90;;;;;;5005952;28;20029;-67
2022/09/05 08:49:13;;;;;;;16.45;14.10;;;25.70;99.90;;;;;;5004186;28;20076;-68
2022/09/05 08:51:54;;;;;;;14.50;12.77;;;25.30;99.90;;;;;;5005205;28;20014;-65
2022/09/05 08:54:57;;;;;;;14.00;12.52;;;25.30;99.90;;;;;;5006337;28;20018;-66
2022/09/05 08:58:09;;;;;;;13.52;11.73;;;25.50;99.90;;;;;;5006349;28;20365;-68
2022/09/05 09:00:45;;;;;;;12.35;11.05;;;26.10;99.90;;;;;;4943961;28;20096;-67
2022/09/05 09:03:23;;;;;;;15.10;13.45;;;26.60;99.90;;;;;;4945130;29;20063;-66
2022/09/05 09:05:58;;;;;;;16.38;13.73;;;27.20;99.90;;;;;;4982369;28;20064;-68
2022/09/05 09:08:26;;;;;;;18.13;14.63;;;27.60;99.90;;;;;;5005870;28;20099;-65
2022/09/05 09:10:59;;;;;;;15.57;13.93;;;28.10;99.90;;;;;;5002264;28;20025;-70
2022/09/05 09:14:06;;;;;;;15.65;13.63;;;28.40;99.20;;;;;;5005680;28;20030;-69
2022/09/05 09:16:40;;;;;;;13.68;12.30;;;28.70;97.80;;;;;;4994844;28;20129;-70
2022/09/05 09:19:15;;;;;;;13.60;12.27;;;29.10;97.40;;;;;;5008208;28;20022;-66
2022/09/05 09:22:00;;;;;;;14.20;12.68;;;29.30;98.30;;;;;;5011211;28;20207;-67
2022/09/05 09:25:00;;;;;;;14.50;12.50;;;29.60;95.40;;;;;;5011057;28;20503;-68
2022/09/05 09:27:43;;;;;;;12.88;11.57;;;29.80;95.60;;;;;;5001440;28;20046;-66
2022/09/05 09:30:12;;;;;;;12.98;11.77;;;29.90;94.60;;;;;;5012200;28;20018;-69
2022/09/05 09:32:47;;;;;;;13.18;11.77;;;30.10;93.60;;;;;;5009835;28;20068;-69
2022/09/05 09:35:22;;;;;;;13.45;12.05;;;30.40;93.50;;;;;;5009293;28;20029;-69
2022/09/05 09:37:49;;;;;;;12.15;10.95;;;30.50;92.10;;;;;;5000641;28;20018;-67
2022/09/05 09:40:49;;;;;;;12.10;10.82;;;30.70;92.40;;;;;;5014844;28;20026;-67
2022/09/05 09:43:48;;;;;;;12.70;11.40;;;30.80;90.20;;;;;;5013579;28;20026;-65
2022/09/05 09:46:29;;;;;;;11.68;8.98;;;30.50;90.40;;;;;;4995241;28;20493;-68
2022/09/05 09:49:26;;;;;;;9.32;8.43;;;30.80;84.80;;;;;;5007857;28;20030;-65
2022/09/05 09:52:24;;;;;;;7.93;7.18;;;31.10;85.10;;;;;;5008000;28;20037;-68
2022/09/05 09:55:27;;;;;;;8.10;7.32;;;31.60;87.80;;;;;;5004812;28;20174;-67
2022/09/05 09:57:59;;;;;;;;;;;31.80;85.10;;;;;;5026244;28;20026;-71
2022/09/05 10:00:50;;;;;;;7.32;6.55;;;31.90;84.30;;;;;;5016765;28;19912;-66
2022/09/05 10:04:03;;;;;;;7.10;6.47;;;31.90;77.50;;;;;;4984226;28;20045;-67
2022/09/05 10:07:09;;;;;;;9.10;6.30;;;31.90;81.80;;;;;;4929290;29;20442;-70
2022/09/05 10:10:07;;;;;;;6.78;5.78;;;32.20;81.30;;;;;;5019053;28;20415;-65
2022/09/05 10:12:51;;;;;;;6.00;5.43;;;32.40;77.80;;;;;;4995521;28;20046;-65
2022/09/05 10:15:57;;;;;;;5.10;4.15;;;32.80;74.70;;;;;;5024336;28;20022;-67
2022/09/05 10:18:44;;;;;;;3.97;3.67;;;33.20;71.10;;;;;;5029087;28;20068;-69
2022/09/05 10:21:19;;;;;;;3.55;3.25;;;33.30;74.10;;;;;;5023821;28;21549;-66
2022/09/05 10:24:14;;;;;;;2.92;2.63;;;33.40;71.40;;;;;;5023843;28;20499;-65
2022/09/05 10:27:22;;;;;;;3.13;2.83;;;33.40;69.50;;;;;;5032491;28;20028;-68
2022/09/05 10:29:53;;;;;;;2.47;2.28;;;33.70;65.60;;;;;;5030926;28;20021;-72
2022/09/05 10:32:30;;;;;;;8.27;2.60;;;33.70;62.60;;;;;;5030214;28;20132;-67
2022/09/05 10:34:59;;;;;;;3.20;2.90;;;33.70;58.40;;;;;;5032007;28;20028;-67
2022/09/05 10:37:40;;;;;;;2.80;2.60;;;33.40;59.20;;;;;;5032482;28;20087;-66
2022/09/05 10:40:11;;;;;;;3.05;2.85;;;33.50;63.10;;;;;;5024273;28;20080;-66
2022/09/05 10:42:53;;;;;;;2.63;2.42;;;33.70;59.50;;;;;;5031982;28;20136;-68
2022/09/05 10:45:31;;;;;;;2.40;2.22;;;33.90;59.80;;;;;;5033800;28;20087;-65
2022/09/05 10:48:11;;;;;;;2.97;2.78;;;33.90;55.20;;;;;;5031951;28;20033;-66
2022/09/05 10:50:49;;;;;;;3.10;2.90;;;33.90;55.50;;;;;;5031278;28;20033;-67
2022/09/05 10:53:39;;;;;;;3.65;3.20;;;33.80;55.40;;;;;;5017152;28;20506;-66
2022/09/05 10:56:27;;;;;;;3.00;2.80;;;33.70;55.50;;;;;;5030784;28;20519;-65
2022/09/05 10:59:34;;;;;;;3.50;3.20;;;33.40;55.40;;;;;;5031304;28;20048;-66
2022/09/05 11:02:06;;;;;;;2.80;2.60;;;33.30;56.90;;;;;;4992364;28;20044;-67
2022/09/05 11:04:42;;;;;;;2.65;2.45;;;33.40;55.60;;;;;;5028079;28;20042;-67
2022/09/05 11:07:17;;;;;;;3.03;2.78;;;33.00;52.70;;;;;;5030471;28;20026;-66
2022/09/05 11:09:45;;;;;;;3.05;2.85;;;32.40;51.30;;;;;;5030807;28;20094;-67
2022/09/05 11:12:35;;;;;;;2.97;2.78;;;31.90;52.80;;;;;;5031031;28;20087;-70
2022/09/05 11:15:25;;;;;;;3.60;3.30;;;31.60;53.20;;;;;;5030446;28;20079;-69
2022/09/05 11:18:02;;;;;;;3.20;3.00;;;31.40;56.90;;;;;;5013978;28;20072;-67
2022/09/05 11:20:49;;;;;;;2.88;2.67;;;31.40;55.60;;;;;;5030903;28;20036;-68
2022/09/05 11:23:18;;;;;;;3.50;3.20;;;31.40;55.60;;;;;;5032907;28;20029;-72
2022/09/05 11:25:46;;;;;;;2.85;2.67;;;31.50;57.30;;;;;;5014455;28;20041;-70
2022/09/05 11:28:34;;;;;;;3.42;3.13;;;31.80;56.20;;;;;;5006426;28;20033;-70
2022/09/05 11:31:08;;;;;;;4.10;3.75;;;32.30;55.20;;;;;;5017755;28;20025;-69
2022/09/05 11:34:01;;;;;;;4.38;4.07;;;32.50;57.00;;;;;;5031103;28;20033;-68
2022/09/05 11:36:49;;;;;;;4.18;3.88;;;32.40;55.40;;;;;;5030275;28;20500;-67
2022/09/05 11:39:33;;;;;;;4.07;3.78;;;31.60;59.40;;;;;;5024681;28;20021;-72
2022/09/05 11:42:01;;;;;;;3.58;3.38;;;31.50;61.30;;;;;;5022147;28;20025;-68
2022/09/05 11:44:44;;;;;;;3.67;3.38;;;31.50;61.10;;;;;;5029706;28;20022;-69
2022/09/05 11:48:01;;;;;;;4.60;3.70;;;31.30;60.30;;;;;;5030083;28;20418;-69
2022/09/05 11:50:40;;;;;;;4.45;3.13;;;31.10;61.40;;;;;;4996657;28;20495;-66
2022/09/05 11:53:17;;;;;;;3.05;2.75;;;30.80;61.40;;;;;;5032148;28;20040;-67
2022/09/05 11:56:17;;;;;;;3.50;3.20;;;30.70;61.10;;;;;;5031696;28;20074;-64
2022/09/05 11:58:49;;;;;;;2.88;2.67;;;30.60;62.10;;;;;;5013443;28;20079;-67
2022/09/05 12:01:42;;;;;;;3.20;2.53;;;30.60;62.70;;;;;;5033069;28;20024;-68
2022/09/05 12:04:16;;;;;;;2.72;2.50;;;30.50;60.20;;;;;;5032817;28;20068;-71
2022/09/05 12:07:19;;;;;;;2.70;2.40;;;30.40;63.10;;;;;;5029118;28;20584;-67
2022/09/05 12:10:02;;;;;;;2.47;2.33;;;30.50;63.90;;;;;;5030536;28;20029;-71
2022/09/05 12:12:48;;;;;;;2.33;2.22;;;30.50;61.80;;;;;;5031855;28;20037;-70
2022/09/05 12:15:25;;;;;;;2.70;2.50;;;30.40;64.70;;;;;;4980905;28;20065;-67
2022/09/05 12:18:08;;;;;;;2.30;2.10;;;30.40;64.00;;;;;;5031009;28;20025;-69
2022/09/05 12:20:52;;;;;;;2.80;2.60;;;30.30;62.20;;;;;;5030872;28;20021;-70
2022/09/05 12:23:42;;;;;;;2.47;2.28;;;30.60;63.00;;;;;;5030709;28;20418;-70
2022/09/05 12:26:18;;;;;;;2.70;2.50;;;30.90;63.10;;;;;;5012725;28;20044;-66
2022/09/05 12:28:56;;;;;;;2.38;2.28;;;31.30;60.30;;;;;;5026860;28;20030;-68
2022/09/05 12:31:34;;;;;;;3.05;2.75;;;31.60;59.50;;;;;;5030907;28;20033;-66
2022/09/05 12:34:08;;;;;;;3.10;2.90;;;31.90;60.80;;;;;;5028553;28;20108;-68
2022/09/05 12:36:42;;;;;;;3.17;2.97;;;31.90;58.10;;;;;;5025189;28;20029;-67
2022/09/05 12:39:20;;;;;;;2.78;2.58;;;31.60;57.20;;;;;;5012186;28;20480;-67
2022/09/05 12:41:58;;;;;;;3.03;2.83;;;31.70;56.60;;;;;;5028291;28;20040;-67
2022/09/05 12:44:43;;;;;;;3.65;3.45;;;31.80;54.40;;;;;;5031207;28;20083;-66
2022/09/05 12:47:16;;;;;;;3.38;3.17;;;31.70;55.20;;;;;;5018663;28;20030;-67
2022/09/05 12:50:11;;;;;;;3.30;3.03;;;32.00;56.70;;;;;;5026421;28;20018;-68
2022/09/05 12:52:45;;;;;;;3.42;3.22;;;32.40;54.40;;;;;;5032334;28;20041;-69
2022/09/05 12:55:11;;;;;;;3.28;3.05;;;32.50;53.40;;;;;;5031424;28;20092;-66
2022/09/05 12:57:41;;;;;;;3.10;2.90;;;32.30;54.70;;;;;;5031349;28;20362;-66
2022/09/05 13:00:20;;;;;;;2.60;2.42;;;32.50;56.60;;;;;;5031400;28;20553;-66
2022/09/05 13:02:52;;;;;;;3.30;3.00;;;32.90;55.00;;;;;;5031958;28;20056;-67
2022/09/05 13:05:25;;;;;;;2.90;2.70;;;33.00;53.90;;;;;;5031222;28;20025;-67
2022/09/05 13:07:57;;;;;;;2.42;2.33;;;33.00;55.40;;;;;;5031287;28;20370;-67
2022/09/05 13:10:34;;;;;;;2.47;2.27;;;33.30;53.90;;;;;;5031868;28;20036;-65
2022/09/05 13:13:35;;;;;;;2.45;2.25;;;33.60;56.10;;;;;;5032181;28;20088;-68
2022/09/05 13:16:02;;;;;;;2.50;2.30;;;33.40;53.70;;;;;;4978201;28;20049;-68
2022/09/05 13:18:40;;;;;;;2.15;2.05;;;33.40;53.20;;;;;;5032778;28;20025;-68
2022/09/05 13:21:17;;;;;;;2.17;2.08;;;33.50;55.80;;;;;;5033170;28;20018;-69
2022/09/05 13:24:00;;;;;;;1.90;1.67;;;33.70;55.30;;;;;;5033067;28;20021;-67
2022/09/05 13:27:06;;;;;;;2.00;1.90;;;33.60;57.00;;;;;;5033110;28;20067;-65
2022/09/05 13:29:42;;;;;;;1.92;1.83;;;33.60;55.00;;;;;;5020847;28;20040;-65
2022/09/05 13:32:16;;;;;;;1.67;1.58;;;33.50;55.20;;;;;;5032758;28;20040;-69
2022/09/05 13:34:46;;;;;;;1.70;1.60;;;33.30;55.20;;;;;;5033080;28;20426;-65
2022/09/05 13:37:23;;;;;;;1.95;1.80;;;33.40;57.60;;;;;;5033049;28;20101;-66
2022/09/05 13:40:05;;;;;;;2.17;1.98;;;33.50;54.60;;;;;;5033305;28;20101;-66
2022/09/05 13:42:34;;;;;;;2.15;2.05;;;33.60;54.60;;;;;;5033049;28;20100;-68
2022/09/05 13:45:00;;;;;;;2.42;2.33;;;33.70;55.10;;;;;;5015232;28;20067;-65
2022/09/05 13:47:57;;;;;;;2.60;2.40;;;33.40;55.30;;;;;;5032796;28;20576;-65
2022/09/05 13:50:45;;;;;;;2.20;2.10;;;33.20;53.60;;;;;;5033046;28;20026;-65
2022/09/05 13:53:20;;;;;;;2.80;2.70;;;32.80;52.20;;;;;;5032983;28;20034;-67
2022/09/05 13:55:52;;;;;;;2.67;2.47;;;32.40;54.00;;;;;;5032724;28;20069;-65
2022/09/05 13:58:30;;;;;;;2.25;2.13;;;32.40;53.70;;;;;;5032871;28;20025;-67
2022/09/05 14:01:13;;;;;;;2.15;2.05;;;32.40;56.90;;;;;;5032737;28;20028;-68